createdAt,value
2024-02-13T00:03:37.726Z,92.92
2024-02-13T00:08:45.672Z,93.11
2024-02-13T00:13:53.422Z,93.72
2024-02-13T00:19:02.805Z,93.99
2024-02-13T00:24:12.245Z,93.54
2024-02-13T00:29:15.760Z,94.34
2024-02-13T00:34:20.983Z,93.92
2024-02-13T00:39:25.576Z,93.71
2024-02-13T00:44:29.055Z,94.57
2024-02-13T00:49:33.457Z,94.55
2024-02-13T00:54:37.119Z,94.92
2024-02-13T00:59:41.445Z,95.04
2024-02-13T01:04:45.851Z,96.25
2024-02-13T01:09:49.237Z,96.26
2024-02-13T01:14:52.824Z,97.88
2024-02-13T01:19:56.302Z,97.84
2024-02-13T01:25:00.291Z,98.96
2024-02-13T01:30:04.012Z,100.00
2024-02-13T01:35:11.736Z,100.00
2024-02-13T01:40:17.608Z,100.00
2024-02-13T01:45:22.504Z,100.00
2024-02-13T01:50:28.563Z,100.00
2024-02-13T01:55:33.215Z,100.00
2024-02-13T02:00:37.432Z,100.00
2024-02-13T02:05:40.881Z,100.00
2024-02-13T02:10:45.864Z,100.00
2024-02-13T02:15:50.206Z,100.00
2024-02-13T02:20:54.023Z,100.00
2024-02-13T02:25:57.515Z,100.00
2024-02-13T02:31:01.146Z,100.00
2024-02-13T02:36:05.384Z,100.00
2024-02-13T02:41:08.900Z,100.00
2024-02-13T02:46:13.961Z,100.00
2024-02-13T02:51:17.887Z,100.00
2024-02-13T02:56:22.330Z,100.00
2024-02-13T03:01:26.010Z,100.00
2024-02-13T03:06:30.535Z,100.00
2024-02-13T03:11:35.498Z,100.00
2024-02-13T03:16:40.403Z,100.00
2024-02-13T03:21:44.080Z,100.00
2024-02-13T03:26:47.476Z,100.00
2024-02-13T03:31:50.950Z,100.00
2024-02-13T03:36:54.396Z,100.00
2024-02-13T03:41:57.973Z,100.00
2024-02-13T03:47:01.308Z,100.00
2024-02-13T03:52:05.285Z,100.00
2024-02-13T03:57:08.693Z,100.00
2024-02-13T04:02:12.512Z,100.00
2024-02-13T04:07:16.944Z,100.00
2024-02-13T04:12:22.744Z,100.00
2024-02-13T04:17:26.672Z,100.00
2024-02-13T04:22:30.093Z,100.00
2024-02-13T04:27:33.268Z,100.00
2024-02-13T04:32:39.900Z,100.00
2024-02-13T04:37:45.006Z,100.00
2024-02-13T04:42:49.582Z,100.00
2024-02-13T04:47:53.186Z,100.00
2024-02-13T04:52:56.769Z,100.00
2024-02-13T04:58:00.615Z,100.00
2024-02-13T05:03:17.715Z,100.00
2024-02-13T05:08:21.540Z,100.00
2024-02-13T05:13:25.238Z,100.00
2024-02-13T05:18:29.030Z,100.00
2024-02-13T05:23:32.572Z,100.00
2024-02-13T05:28:39.111Z,100.00
2024-02-13T05:33:44.051Z,100.00
2024-02-13T05:38:49.583Z,100.00
2024-02-13T05:43:54.048Z,100.00
2024-02-13T05:49:00.651Z,100.00
2024-02-13T05:54:06.353Z,100.00
2024-02-13T05:59:10.464Z,100.00
2024-02-13T06:04:14.697Z,100.00
2024-02-13T06:09:22.558Z,100.00
2024-02-13T06:14:26.098Z,100.00
2024-02-13T06:19:29.504Z,100.00
2024-02-13T06:24:32.873Z,100.00
2024-02-13T06:29:36.398Z,100.00
2024-02-13T06:34:40.763Z,100.00
2024-02-13T06:39:44.105Z,100.00
2024-02-13T06:44:48.717Z,100.00
2024-02-13T06:49:52.839Z,100.00
2024-02-13T06:54:56.221Z,100.00
2024-02-13T07:00:05.191Z,100.00
2024-02-13T07:05:10.902Z,100.00
2024-02-13T07:10:15.336Z,100.00
2024-02-13T07:15:19.925Z,100.00
2024-02-13T07:20:27.537Z,100.00
2024-02-13T07:25:32.121Z,100.00
2024-02-13T07:30:35.691Z,100.00
2024-02-13T07:35:40.698Z,100.00
2024-02-13T07:40:45.261Z,94.24
2024-02-13T07:45:48.712Z,90.71
2024-02-13T07:50:54.954Z,82.87
2024-02-13T07:55:58.923Z,74.39
2024-02-13T08:01:02.344Z,72.58
2024-02-13T08:06:06.334Z,68.63
2024-02-13T08:11:11.376Z,65.28
2024-02-13T08:16:15.383Z,65.42
2024-02-13T08:21:19.116Z,64.86
2024-02-13T08:26:22.665Z,65.31
2024-02-13T08:31:27.007Z,64.62
2024-02-13T08:36:30.923Z,63.13
2024-02-13T08:41:34.675Z,63.06
2024-02-13T08:46:41.467Z,63.69
2024-02-13T08:51:44.991Z,62.63
2024-02-13T08:56:48.490Z,60.51
2024-02-13T09:01:52.291Z,60.79
2024-02-13T09:06:57.050Z,61.49
2024-02-13T09:12:01.182Z,61.06
2024-02-13T09:17:06.367Z,60.64
2024-02-13T09:22:15.113Z,60.32
2024-02-13T09:27:21.087Z,59.26
2024-02-13T09:32:25.265Z,59.81
2024-02-13T09:37:28.628Z,59.67
2024-02-13T09:42:32.080Z,59.16
2024-02-13T09:47:37.612Z,57.68
2024-02-13T09:52:58.489Z,57.44
2024-02-13T09:58:02.585Z,58.96
2024-02-13T10:03:07.775Z,59.68
2024-02-13T10:08:12.788Z,59.04
2024-02-13T10:13:16.787Z,57.63
2024-02-13T10:18:21.638Z,58.51
2024-02-13T10:23:26.160Z,58.24
2024-02-13T10:28:31.210Z,57.17
2024-02-13T10:33:43.076Z,54.56
2024-02-13T10:38:52.618Z,52.15
2024-02-13T10:43:57.109Z,50.24
2024-02-13T10:49:27.929Z,50.53
2024-02-13T10:54:37.329Z,50.13
2024-02-13T10:59:42.921Z,49.42
2024-02-13T11:04:49.144Z,51.23
2024-02-13T11:09:54.489Z,50.95
2024-02-13T11:15:13.156Z,49.45
2024-02-13T11:20:20.512Z,50.66
2024-02-13T11:25:28.391Z,52.75
2024-02-13T11:30:31.982Z,53.47
2024-02-13T11:35:48.543Z,54.22
2024-02-13T11:40:57.992Z,55.98
2024-02-13T11:46:05.373Z,54.91
2024-02-13T11:51:09.398Z,55.44
2024-02-13T11:56:14.356Z,55.68
2024-02-13T12:01:20.139Z,55.89
2024-02-13T12:06:25.706Z,56.50
2024-02-13T12:11:30.680Z,58.33
2024-02-13T12:16:34.661Z,59.17
2024-02-13T12:21:41.398Z,59.88
2024-02-13T12:26:45.233Z,61.50
2024-02-13T12:31:49.151Z,61.62
2024-02-13T12:36:59.239Z,62.00
2024-02-13T12:42:03.781Z,62.97
2024-02-13T12:47:09.258Z,62.65
2024-02-13T12:52:18.166Z,63.29
2024-02-13T12:57:22.004Z,62.15
2024-02-13T13:02:27.501Z,60.35
2024-02-13T13:07:33.189Z,58.67
2024-02-13T13:12:38.055Z,58.53
2024-02-13T13:17:43.048Z,56.71
2024-02-13T13:22:48.887Z,53.85
2024-02-13T13:27:53.261Z,52.31
2024-02-13T13:32:56.850Z,53.32
2024-02-13T13:38:00.446Z,54.52
2024-02-13T13:43:07.863Z,54.59
2024-02-13T13:48:17.117Z,55.16
2024-02-13T13:53:24.316Z,54.92
2024-02-13T13:58:28.257Z,53.95
2024-02-13T14:03:31.863Z,53.19
2024-02-13T14:08:39.680Z,54.16
2024-02-13T14:13:43.470Z,53.24
2024-02-13T14:18:46.922Z,53.32
2024-02-13T14:23:55.190Z,52.47
2024-02-13T14:28:58.641Z,53.04
2024-02-13T14:34:02.392Z,52.38
2024-02-13T14:39:08.260Z,52.94
2024-02-13T14:44:11.796Z,53.28
2024-02-13T14:49:15.678Z,53.77
2024-02-13T14:54:22.508Z,54.34
2024-02-13T14:59:26.412Z,54.22
2024-02-13T15:04:29.970Z,54.75
2024-02-13T15:09:35.264Z,54.79
2024-02-13T15:14:39.118Z,54.84
2024-02-13T15:19:42.649Z,53.93
2024-02-13T15:24:46.436Z,53.67
2024-02-13T15:29:51.001Z,53.63
2024-02-13T15:34:57.952Z,53.53
2024-02-13T15:40:19.962Z,53.75
2024-02-13T15:45:41.804Z,54.29
2024-02-13T15:50:47.293Z,54.93
2024-02-13T15:55:50.595Z,55.51
2024-02-13T16:00:54.187Z,56.74
2024-02-13T16:05:58.305Z,57.68
2024-02-13T16:11:01.846Z,58.46
2024-02-13T16:16:06.533Z,60.83
2024-02-13T16:21:10.113Z,62.19
2024-02-13T16:26:13.694Z,63.14
2024-02-13T16:31:21.892Z,63.63
2024-02-13T16:36:26.702Z,64.33
2024-02-13T16:41:30.154Z,64.71
2024-02-13T16:46:34.833Z,65.01
2024-02-13T16:51:39.244Z,64.86
2024-02-13T16:56:43.616Z,64.17
2024-02-13T17:01:47.075Z,65.15
2024-02-13T17:06:50.681Z,66.29
2024-02-13T17:12:01.827Z,66.75
2024-02-13T17:17:08.099Z,67.50
2024-02-13T17:22:12.426Z,68.14
2024-02-13T17:27:15.766Z,68.86
2024-02-13T17:32:19.213Z,69.56
2024-02-13T17:37:24.528Z,70.81
2024-02-13T17:42:27.747Z,71.22
2024-02-13T17:47:31.627Z,72.23
2024-02-13T17:52:35.395Z,72.94
2024-02-13T17:57:41.450Z,73.46
2024-02-13T18:02:46.045Z,74.13
2024-02-13T18:07:49.443Z,74.21
2024-02-13T18:12:58.573Z,74.38
2024-02-13T18:18:02.070Z,74.39
2024-02-13T18:23:08.621Z,74.44
2024-02-13T18:28:14.771Z,74.45
2024-02-13T18:33:18.518Z,74.63
2024-02-13T18:38:22.482Z,75.16
2024-02-13T18:43:29.376Z,74.62
2024-02-13T18:48:32.941Z,74.75
2024-02-13T18:53:36.819Z,74.57
2024-02-13T18:58:41.221Z,74.19
2024-02-13T19:03:44.804Z,74.58
2024-02-13T19:08:49.078Z,73.96
2024-02-13T19:13:52.465Z,73.67
2024-02-13T19:18:57.986Z,73.63
2024-02-13T19:24:01.703Z,74.04
2024-02-13T19:29:05.881Z,74.83
2024-02-13T19:34:09.493Z,76.05
2024-02-13T19:39:14.091Z,76.94
2024-02-13T19:44:18.671Z,77.32
2024-02-13T19:49:22.130Z,77.99
2024-02-13T19:54:25.762Z,80.07
2024-02-13T19:59:29.322Z,79.66
2024-02-13T20:04:33.208Z,80.30
2024-02-13T20:09:37.027Z,81.02
2024-02-13T20:14:40.280Z,80.82
2024-02-13T20:19:43.543Z,80.93
2024-02-13T20:24:48.607Z,80.49
2024-02-13T20:29:53.099Z,79.61
2024-02-13T20:34:57.669Z,79.92
2024-02-13T20:40:08.585Z,79.81
2024-02-13T20:45:20.749Z,80.43
2024-02-13T20:50:26.279Z,81.14
2024-02-13T20:55:29.864Z,80.31
2024-02-13T21:00:35.672Z,80.47
2024-02-13T21:05:39.507Z,80.11
2024-02-13T21:10:43.061Z,78.43
2024-02-13T21:15:46.808Z,77.59
2024-02-13T21:21:09.116Z,76.72
2024-02-13T21:26:12.630Z,75.72
2024-02-13T21:31:17.078Z,74.46
2024-02-13T21:36:20.302Z,73.59
2024-02-13T21:41:24.006Z,73.37
2024-02-13T21:46:27.248Z,72.66
2024-02-13T21:51:31.320Z,72.69
2024-02-13T21:56:34.836Z,73.84
2024-02-13T22:01:38.200Z,74.85
2024-02-13T22:06:41.743Z,76.12
2024-02-13T22:11:45.238Z,77.08
2024-02-13T22:16:50.369Z,77.35
2024-02-13T22:21:54.305Z,76.48
2024-02-13T22:26:58.683Z,76.14
2024-02-13T22:32:02.843Z,75.46
2024-02-13T22:37:07.125Z,75.51
2024-02-13T22:42:11.020Z,75.30
2024-02-13T22:47:14.445Z,75.83
2024-02-13T22:52:17.769Z,75.00
2024-02-13T22:57:20.939Z,74.71
2024-02-13T23:02:24.736Z,75.01
2024-02-13T23:07:28.834Z,74.98
2024-02-13T23:12:33.640Z,75.10
2024-02-13T23:17:37.570Z,74.81
2024-02-13T23:22:41.104Z,74.64
2024-02-13T23:27:44.758Z,74.66
2024-02-13T23:32:51.544Z,74.41
2024-02-13T23:37:55.821Z,73.98
2024-02-13T23:43:00.310Z,74.63
2024-02-13T23:48:04.613Z,75.56
2024-02-13T23:53:09.435Z,77.17
2024-02-13T23:58:13.044Z,79.29
